TimeCST,TemperatureF,Dew PointF,Humidity,Sea Level PressureIn,VisibilityMPH,Wind Direction,Wind SpeedMPH,Gust SpeedMPH,PrecipitationIn,Events,Conditions,WindDirDegrees,DateUTC
12:56 AM,24.1,23.0,96,29.92,-9999.0,WSW,3.5,-,N/A,,Unknown,250,2012-12-02 06:56:00
1:56 AM,25.0,23.0,92,29.91,-9999.0,SSW,5.8,-,N/A,,Unknown,200,2012-12-02 07:56:00
2:56 AM,21.9,19.0,89,29.95,-9999.0,Calm,Calm,-,N/A,,Unknown,0,2012-12-02 08:56:00
3:56 AM,21.9,19.9,92,29.93,-9999.0,Calm,Calm,-,N/A,,Unknown,0,2012-12-02 09:56:00
4:56 AM,19.9,19.0,96,29.94,-9999.0,South,5.8,-,N/A,,Unknown,180,2012-12-02 10:56:00
5:56 AM,21.9,21.9,100,29.94,-9999.0,South,4.6,-,N/A,,Unknown,170,2012-12-02 11:56:00
6:56 AM,24.1,23.0,96,29.96,-9999.0,South,8.1,-,N/A,,Unknown,170,2012-12-02 12:56:00
7:56 AM,24.1,23.0,96,29.95,-9999.0,SE,6.9,-,N/A,,Unknown,140,2012-12-02 13:56:00
8:56 AM,25.0,24.1,96,29.94,-9999.0,South,10.4,-,N/A,,Unknown,180,2012-12-02 14:56:00
9:56 AM,28.9,27.0,92,29.91,-9999.0,South,12.7,-,N/A,,Unknown,170,2012-12-02 15:56:00
10:56 AM,34.0,32.0,92,29.90,-9999.0,SE,9.2,-,N/A,,Unknown,140,2012-12-02 16:56:00
11:56 AM,45.0,35.1,68,29.82,-9999.0,South,15.0,-,N/A,,Unknown,170,2012-12-02 17:56:00
12:56 PM,52.0,37.0,57,29.78,-9999.0,SSE,15.0,-,N/A,,Unknown,160,2012-12-02 18:56:00
1:56 PM,55.9,37.9,51,29.74,-9999.0,SSE,17.3,-,N/A,,Unknown,160,2012-12-02 19:56:00
2:56 PM,60.1,35.1,39,29.69,-9999.0,South,15.0,-,N/A,,Unknown,180,2012-12-02 20:56:00
3:56 PM,55.9,35.1,45,29.68,-9999.0,South,13.8,-,N/A,,Unknown,180,2012-12-02 21:56:00
4:56 PM,51.1,34.0,52,29.67,-9999.0,South,11.5,-,N/A,,Unknown,170,2012-12-02 22:56:00
5:56 PM,51.1,35.1,54,29.63,-9999.0,South,19.6,-,N/A,,Unknown,180,2012-12-02 23:56:00
6:56 PM,48.9,36.0,61,29.60,-9999.0,South,20.7,-,N/A,,Unknown,170,2012-12-03 00:56:00
7:56 PM,50.0,35.1,57,29.58,-9999.0,SSE,21.9,-,N/A,,Unknown,160,2012-12-03 01:56:00
8:56 PM,57.9,36.0,44,29.54,-9999.0,SSW,26.5,36.8,N/A,,Unknown,210,2012-12-03 02:56:00
9:56 PM,57.0,36.0,45,29.52,-9999.0,SSW,28.8,40.3,N/A,,Unknown,210,2012-12-03 03:56:00
10:56 PM,55.9,37.0,49,29.50,-9999.0,SW,28.8,39.1,N/A,,Unknown,220,2012-12-03 04:56:00
11:56 PM,57.0,37.0,47,29.45,-9999.0,SW,34.5,48.3,N/A,,Unknown,220,2012-12-03 05:56:00